createdAt,value
2019-02-05T00:00:29.001Z,27.9
2019-02-05T00:01:16.689Z,27.9
2019-02-05T00:02:07.561Z,27.9
2019-02-05T00:02:56.766Z,27.9
2019-02-05T00:03:47.702Z,27.9
2019-02-05T00:04:36.411Z,27.9
2019-02-05T00:05:27.512Z,27.9
2019-02-05T00:06:17.711Z,27.9
2019-02-05T00:07:07.346Z,27.9
2019-02-05T00:07:57.949Z,27.9
2019-02-05T00:08:48.021Z,27.9
2019-02-05T00:09:40.193Z,27.9
2019-02-05T00:11:17.621Z,27.9
2019-02-05T00:19:38.500Z,27.8
2019-02-05T00:20:28.366Z,27.8
2019-02-05T00:21:18.085Z,27.8
2019-02-05T00:22:08.134Z,27.8
2019-02-05T00:24:39.590Z,27.8
2019-02-05T00:25:28.372Z,27.8
2019-02-05T00:26:19.263Z,27.8
2019-02-05T00:27:09.593Z,27.8
2019-02-05T00:28:01.985Z,27.8
2019-02-05T00:28:49.437Z,27.8
2019-02-05T00:29:39.043Z,27.8
2019-02-05T00:30:29.297Z,27.8
2019-02-05T00:31:19.435Z,27.8
2019-02-05T00:32:09.392Z,27.8
2019-02-05T00:32:59.232Z,27.7
2019-02-05T00:33:49.970Z,27.7
2019-02-05T00:34:39.045Z,27.7
2019-02-05T00:35:29.630Z,27.8
2019-02-05T00:36:19.111Z,27.7
2019-02-05T00:37:11.979Z,27.7
2019-02-05T00:37:59.796Z,27.7
2019-02-05T00:38:49.861Z,27.7
2019-02-05T00:39:39.904Z,27.7
2019-02-05T00:40:30.252Z,27.7
2019-02-05T00:41:20.304Z,27.7
2019-02-05T00:42:10.077Z,27.7
2019-02-05T00:43:00.572Z,27.7
2019-02-05T00:43:50.759Z,27.7
2019-02-05T00:44:40.352Z,27.7
2019-02-05T00:45:30.601Z,27.6
2019-02-05T00:46:21.231Z,27.6
2019-02-05T00:47:10.503Z,27.7
2019-02-05T00:48:00.879Z,27.6
2019-02-05T00:48:50.544Z,27.6
2019-02-05T00:49:40.889Z,27.6
2019-02-05T00:50:30.684Z,27.6
2019-02-05T00:51:20.996Z,27.6
2019-02-05T00:52:11.789Z,27.6
2019-02-05T00:53:00.583Z,27.6
2019-02-05T00:53:51.468Z,27.6
2019-02-05T00:54:40.821Z,27.6
2019-02-05T00:55:32.325Z,27.6
2019-02-05T00:56:23.558Z,27.6
2019-02-05T00:57:11.420Z,27.6
2019-02-05T00:58:00.946Z,27.6
2019-02-05T00:58:51.531Z,27.6
2019-02-05T00:59:41.368Z,27.6
2019-02-05T01:00:31.736Z,27.6
2019-02-05T01:01:22.533Z,27.6
2019-02-05T01:02:11.507Z,27.6
2019-02-05T01:03:02.003Z,27.6
2019-02-05T01:03:51.540Z,27.6
2019-02-05T01:04:44.347Z,27.6
2019-02-05T01:05:32.017Z,27.6
2019-02-05T01:06:22.062Z,27.6
2019-02-05T01:07:12.109Z,27.5
2019-02-05T01:08:02.468Z,27.6
2019-02-05T01:08:52.250Z,27.6
2019-02-05T01:09:42.027Z,27.6
2019-02-05T01:10:33.619Z,27.6
2019-02-05T01:11:22.702Z,27.5
2019-02-05T01:12:12.195Z,27.5
2019-02-05T01:13:01.908Z,27.5
2019-02-05T01:13:53.977Z,27.5
2019-02-05T01:14:41.831Z,27.5
2019-02-05T01:15:31.982Z,27.5
2019-02-05T01:16:23.171Z,27.5
2019-02-05T01:17:12.022Z,27.5
2019-02-05T01:18:02.900Z,27.5
2019-02-05T01:18:53.209Z,27.4
2019-02-05T01:19:43.494Z,27.5
2019-02-05T01:20:33.059Z,27.5
2019-02-05T01:21:22.846Z,27.4
2019-02-05T01:22:13.461Z,27.5
2019-02-05T01:23:04.446Z,27.4
2019-02-05T01:23:53.296Z,27.4
2019-02-05T01:24:43.351Z,27.4
2019-02-05T01:25:33.544Z,27.4
2019-02-05T01:26:36.934Z,27.4
2019-02-05T01:27:12.713Z,27.4
2019-02-05T01:28:03.606Z,27.4
2019-02-05T01:28:54.753Z,27.4
2019-02-05T01:29:43.738Z,27.4
2019-02-05T01:30:33.809Z,27.4
2019-02-05T01:31:24.100Z,27.4
2019-02-05T01:32:16.601Z,27.4
2019-02-05T01:33:04.063Z,27.4
2019-02-05T01:33:53.735Z,27.4
2019-02-05T01:34:44.068Z,27.4
2019-02-05T01:35:33.843Z,27.4
2019-02-05T01:36:23.681Z,27.4
2019-02-05T01:37:14.340Z,27.4
2019-02-05T01:38:04.522Z,27.4
2019-02-05T01:38:53.833Z,27.4
2019-02-05T01:39:43.640Z,27.4
2019-02-05T01:40:34.761Z,27.4
2019-02-05T01:41:27.113Z,27.4
2019-02-05T01:42:13.755Z,27.4
2019-02-05T01:43:04.120Z,27.4
2019-02-05T01:43:53.381Z,27.4
2019-02-05T01:44:44.350Z,27.4
2019-02-05T01:45:34.540Z,27.3
2019-02-05T01:46:24.901Z,27.3
2019-02-05T01:47:15.030Z,27.3
2019-02-05T01:48:03.980Z,27.4
2019-02-05T01:48:55.078Z,27.3
2019-02-05T01:49:44.871Z,27.3
2019-02-05T01:50:36.724Z,27.3
2019-02-05T01:51:25.217Z,27.3
2019-02-05T01:52:14.560Z,27.3
2019-02-05T01:53:04.579Z,27.3
2019-02-05T01:53:55.139Z,27.3
2019-02-05T01:54:44.924Z,27.3
2019-02-05T01:55:35.330Z,27.3
2019-02-05T01:56:25.618Z,27.3
2019-02-05T01:57:15.634Z,27.3
2019-02-05T01:58:05.187Z,27.3
2019-02-05T01:58:55.514Z,27.3
2019-02-05T01:59:47.832Z,27.3
2019-02-05T02:00:36.524Z,27.3
2019-02-05T02:01:25.957Z,27.3
2019-02-05T02:02:14.907Z,27.4
2019-02-05T02:03:06.367Z,27.4
2019-02-05T02:03:55.859Z,27.5
2019-02-05T02:04:45.894Z,27.6
2019-02-05T02:05:37.389Z,27.6
2019-02-05T02:06:25.552Z,27.7
2019-02-05T02:07:15.912Z,27.8
2019-02-05T02:08:06.287Z,27.9
2019-02-05T02:08:57.146Z,27.9
2019-02-05T02:09:45.789Z,28
2019-02-05T02:10:36.228Z,28.1
2019-02-05T02:11:25.931Z,28.2
2019-02-05T02:12:16.970Z,28.3
2019-02-05T02:13:06.083Z,28.3
2019-02-05T02:13:56.799Z,28.4
2019-02-05T02:14:48.846Z,28.5
2019-02-05T02:15:36.935Z,28.6
2019-02-05T02:16:27.001Z,28.6
2019-02-05T02:17:16.774Z,28.8
2019-02-05T02:18:06.828Z,28.8
2019-02-05T02:18:55.888Z,28.9
2019-02-05T02:19:47.245Z,28.9
2019-02-05T02:20:36.778Z,29.1
2019-02-05T02:21:26.775Z,29.1
2019-02-05T02:22:17.450Z,29.2
2019-02-05T02:23:07.545Z,29.3
2019-02-05T02:24:00.003Z,29.3
2019-02-05T02:24:47.691Z,29.4
2019-02-05T02:25:37.628Z,29.4
2019-02-05T02:26:27.182Z,29.5
2019-02-05T02:27:17.755Z,29.6
2019-02-05T02:28:07.264Z,29.7
2019-02-05T02:28:57.322Z,29.8
2019-02-05T02:29:48.337Z,29.8
2019-02-05T02:30:37.542Z,29.9
2019-02-05T02:31:27.612Z,29.9
2019-02-05T02:32:18.174Z,30.1
2019-02-05T02:33:10.614Z,30.1
2019-02-05T02:33:58.254Z,30.2
2019-02-05T02:34:47.817Z,30.2
2019-02-05T02:35:38.049Z,30.3
2019-02-05T02:36:28.202Z,30.4
2019-02-05T02:37:18.290Z,30.4
2019-02-05T02:38:08.434Z,30.5
2019-02-05T02:38:59.106Z,30.6
2019-02-05T02:39:48.112Z,30.6
2019-02-05T02:40:38.195Z,30.7
2019-02-05T02:41:27.846Z,30.8
2019-02-05T02:42:21.034Z,30.9
2019-02-05T02:43:07.869Z,30.9
2019-02-05T02:43:58.956Z,31
2019-02-05T02:44:47.128Z,31.1
2019-02-05T02:45:38.789Z,31.1
2019-02-05T02:46:28.083Z,31.2
2019-02-05T02:47:18.706Z,31.3
2019-02-05T02:48:09.035Z,31.3
2019-02-05T02:48:59.634Z,31.4
2019-02-05T02:49:49.252Z,31.4
2019-02-05T02:50:39.589Z,31.6
2019-02-05T02:51:31.206Z,31.6
2019-02-05T02:52:19.649Z,31.7
2019-02-05T02:53:09.441Z,31.8
2019-02-05T02:53:59.529Z,31.8
2019-02-05T02:54:49.854Z,31.9
2019-02-05T02:55:39.987Z,32
2019-02-05T02:56:29.211Z,32.1
2019-02-05T02:57:20.438Z,32.1
2019-02-05T02:58:09.721Z,32.3
2019-02-05T02:58:59.584Z,32.3
2019-02-05T02:59:48.838Z,32.4
2019-02-05T03:00:41.001Z,32.4
2019-02-05T03:01:29.599Z,32.6
2019-02-05T03:02:19.806Z,32.7
2019-02-05T03:03:10.628Z,32.8
2019-02-05T03:04:00.303Z,32.9
2019-02-05T03:04:49.673Z,32.9
2019-02-05T03:08:21.707Z,33.1
2019-02-05T03:09:11.989Z,33.3
2019-02-05T03:10:03.755Z,33.3
2019-02-05T03:10:52.401Z,33.4
2019-02-05T03:11:42.425Z,33.4
2019-02-05T03:12:31.964Z,33.5
2019-02-05T03:13:23.775Z,33.6
2019-02-05T03:14:12.489Z,33.7
2019-02-05T03:15:02.863Z,33.8
2019-02-05T03:15:53.328Z,33.8
2019-02-05T03:16:43.369Z,33.9
2019-02-05T03:17:32.309Z,33.9
2019-02-05T03:18:22.417Z,33.9
2019-02-05T03:19:14.957Z,34
2019-02-05T03:20:03.127Z,34.1
2019-02-05T03:20:52.834Z,34.2
2019-02-05T03:21:43.125Z,34.3
2019-02-05T03:22:32.711Z,34.3
2019-02-05T03:23:23.040Z,34.4
2019-02-05T03:24:13.430Z,34.4
2019-02-05T03:25:04.856Z,34.5
2019-02-05T03:25:52.976Z,34.6
2019-02-05T03:26:43.663Z,34.7
2019-02-05T03:27:33.489Z,34.8
2019-02-05T03:28:23.346Z,34.8
2019-02-05T03:29:13.434Z,34.9
2019-02-05T03:30:03.355Z,34.9
2019-02-05T03:30:58.670Z,35
2019-02-05T03:31:43.986Z,35.1
2019-02-05T03:32:33.862Z,35.1
2019-02-05T03:33:24.472Z,35.1
2019-02-05T03:34:13.731Z,35.2
2019-02-05T03:35:04.827Z,35.2
2019-02-05T03:35:54.181Z,35.3
2019-02-05T03:36:45.482Z,35.3
2019-02-05T03:37:33.581Z,35.3
2019-02-05T03:38:24.035Z,35.4
2019-02-05T03:39:14.113Z,35.4
2019-02-05T03:40:05.044Z,35.4
2019-02-05T03:40:54.383Z,35.5
2019-02-05T03:41:44.318Z,35.5
2019-02-05T03:42:35.075Z,35.6
2019-02-05T03:43:23.886Z,35.6
2019-02-05T03:44:14.598Z,35.6
2019-02-05T03:45:04.396Z,35.7
2019-02-05T03:45:56.705Z,35.7
2019-02-05T03:46:44.343Z,35.8
2019-02-05T03:47:34.393Z,35.8
2019-02-05T03:48:24.997Z,35.8
2019-02-05T03:49:14.662Z,35.8
2019-02-05T03:50:05.291Z,35.9
2019-02-05T03:50:55.353Z,35.9
2019-02-05T03:51:47.072Z,35.9
2019-02-05T03:52:35.160Z,35.9
2019-02-05T03:53:24.855Z,35.9
2019-02-05T03:54:15.534Z,35.9
2019-02-05T03:55:05.155Z,36
2019-02-05T03:55:55.617Z,36.1
2019-02-05T03:56:45.349Z,36.1
2019-02-05T03:59:36.155Z,36.1
2019-02-05T03:59:49.457Z,36.1
2019-02-05T04:00:37.579Z,36.1
2019-02-05T04:01:27.427Z,36.1
2019-02-05T04:02:17.492Z,36.1
2019-02-05T04:03:07.796Z,36.1
2019-02-05T04:03:57.841Z,36.1
2019-02-05T04:04:47.594Z,36.1
2019-02-05T04:05:38.477Z,36.1
2019-02-05T04:06:27.453Z,36.1
2019-02-05T04:07:17.491Z,36.1
2019-02-05T04:08:08.135Z,36.1
2019-02-05T04:08:59.872Z,36.1
2019-02-05T04:09:47.698Z,36.1
2019-02-05T04:10:38.011Z,36.2
2019-02-05T04:11:28.104Z,36.1
2019-02-05T04:12:17.631Z,36.2
2019-02-05T04:13:08.466Z,36.2
2019-02-05T04:13:58.253Z,36.2
2019-02-05T04:14:48.835Z,36.2
2019-02-05T04:15:38.652Z,36.2
2019-02-05T04:16:28.448Z,36.2
2019-02-05T04:17:18.204Z,36.2
2019-02-05T04:18:09.979Z,36.2
2019-02-05T04:18:58.304Z,36.2
2019-02-05T04:19:48.989Z,36.3
2019-02-05T04:20:38.712Z,36.2
2019-02-05T04:21:28.494Z,36.2
2019-02-05T04:22:19.096Z,36.2
2019-02-05T04:23:08.652Z,36.2
2019-02-05T04:24:00.501Z,36.3
2019-02-05T04:24:49.001Z,36.3
2019-02-05T04:25:39.209Z,36.2
2019-02-05T04:26:29.029Z,36.3
2019-02-05T04:27:20.439Z,36.2
2019-02-05T04:28:09.031Z,36.3
2019-02-05T04:28:59.621Z,36.2
2019-02-05T04:29:49.339Z,36.3
2019-02-05T04:30:39.180Z,36.3
2019-02-05T04:31:29.778Z,36.2
2019-02-05T04:32:19.556Z,36.2
2019-02-05T04:33:12.038Z,36.2
2019-02-05T04:33:59.676Z,36.2
2019-02-05T04:34:49.719Z,36.2
2019-02-05T04:35:40.056Z,36.3
2019-02-05T04:36:29.922Z,36.3
2019-02-05T04:37:19.885Z,36.3
2019-02-05T04:38:09.472Z,36.2
2019-02-05T04:38:59.873Z,36.2
2019-02-05T04:39:50.338Z,36.2
2019-02-05T04:40:40.440Z,36.2
2019-02-05T04:41:30.468Z,36.1
2019-02-05T04:42:23.120Z,36.1
2019-02-05T04:43:10.037Z,36.1
2019-02-05T04:43:59.792Z,36.1
2019-02-05T04:44:50.413Z,36.1
2019-02-05T04:45:40.850Z,36.1
2019-02-05T04:46:31.030Z,36.1
2019-02-05T04:47:20.580Z,36.1
2019-02-05T04:48:11.306Z,36.1
2019-02-05T04:49:00.694Z,36.1
2019-02-05T04:49:50.765Z,36.1
2019-02-05T04:50:40.557Z,36.1
2019-02-05T04:51:32.920Z,36.1
2019-02-05T04:52:20.737Z,36.1
2019-02-05T04:53:11.317Z,36.1
2019-02-05T04:54:01.354Z,36.1
2019-02-05T04:54:51.194Z,36.1
2019-02-05T04:55:40.899Z,36.1
2019-02-05T04:56:31.357Z,36.1
2019-02-05T04:57:22.569Z,36.1
2019-02-05T04:58:11.650Z,36.1
2019-02-05T04:59:01.106Z,36.1
2019-02-05T04:59:51.742Z,36.1
2019-02-05T05:00:42.964Z,36.1
2019-02-05T05:01:31.894Z,36.1
2019-02-05T05:02:22.032Z,36.1
2019-02-05T05:03:11.969Z,36.1
2019-02-05T05:04:02.314Z,36.1
2019-02-05T05:04:51.823Z,36.1
2019-02-05T05:05:42.182Z,36.1
2019-02-05T05:06:33.948Z,36.1
2019-02-05T05:07:22.016Z,36.1
2019-02-05T05:08:12.301Z,36.1
2019-02-05T05:09:02.913Z,36.1
2019-02-05T05:09:52.875Z,36.1
2019-02-05T05:10:41.944Z,36.1
2019-02-05T05:11:32.288Z,36.1
2019-02-05T05:12:22.533Z,36.1
2019-02-05T05:13:12.725Z,36.1
2019-02-05T05:14:02.770Z,36.1
2019-02-05T05:14:52.573Z,36.1
2019-02-05T05:15:44.921Z,36.1
2019-02-05T05:16:32.619Z,36
2019-02-05T05:17:22.743Z,36
2019-02-05T05:18:16.005Z,36
2019-02-05T05:19:03.622Z,36
2019-02-05T05:19:52.906Z,36
2019-02-05T05:20:43.180Z,36
2019-02-05T05:21:34.414Z,36
2019-02-05T05:22:23.439Z,36
2019-02-05T05:23:13.376Z,36
2019-02-05T05:24:03.724Z,36
2019-02-05T05:24:53.679Z,35.9
2019-02-05T05:25:44.054Z,35.9
2019-02-05T05:26:33.232Z,35.9
2019-02-05T05:27:24.294Z,35.9
2019-02-05T05:28:16.061Z,35.9
2019-02-05T05:29:03.842Z,35.9
2019-02-05T05:29:54.327Z,35.9
2019-02-05T05:30:46.034Z,35.9
2019-02-05T05:31:34.629Z,35.9
2019-02-05T05:32:23.917Z,35.9
2019-02-05T05:33:14.321Z,35.9
2019-02-05T05:34:04.684Z,35.9
2019-02-05T05:34:54.701Z,35.9
2019-02-05T05:35:49.649Z,35.9
2019-02-05T05:36:36.287Z,35.9
2019-02-05T05:37:24.487Z,35.8
2019-02-05T05:38:14.746Z,35.9
2019-02-05T05:39:04.693Z,35.8
2019-02-05T05:39:55.171Z,35.8
2019-02-05T05:40:45.126Z,35.8
2019-02-05T05:41:34.592Z,35.9
2019-02-05T05:42:24.831Z,35.8
2019-02-05T05:43:14.586Z,35.8
2019-02-05T05:44:05.286Z,35.8
2019-02-05T05:44:54.869Z,35.8
2019-02-05T05:45:47.866Z,35.8
2019-02-05T05:46:34.769Z,35.8
2019-02-05T05:47:25.238Z,35.8
2019-02-05T05:48:15.335Z,35.8
2019-02-05T05:49:05.684Z,35.8
2019-02-05T05:49:55.170Z,35.8
2019-02-05T05:50:45.857Z,35.8
2019-02-05T05:51:36.698Z,35.8
2019-02-05T05:52:25.621Z,35.7
2019-02-05T05:53:15.936Z,35.7
2019-02-05T05:54:05.710Z,35.7
2019-02-05T05:54:56.322Z,35.7
2019-02-05T05:55:45.332Z,35.7
2019-02-05T05:56:35.360Z,35.7
2019-02-05T05:57:26.151Z,35.7
2019-02-05T05:58:30.943Z,35.7
2019-02-05T05:59:06.220Z,35.7
2019-02-05T05:59:56.151Z,35.7
2019-02-05T06:00:49.293Z,35.6
2019-02-05T06:01:36.218Z,35.6
2019-02-05T06:02:26.068Z,35.6
2019-02-05T06:03:16.530Z,35.6
2019-02-05T06:04:06.461Z,35.6
2019-02-05T06:06:22.009Z,35.5
2019-02-05T06:07:11.454Z,35.5
2019-02-05T06:08:02.742Z,35.5
2019-02-05T06:08:54.504Z,35.5
2019-02-05T06:09:42.649Z,35.4
2019-02-05T06:10:32.130Z,35.5
2019-02-05T06:11:22.296Z,35.5
2019-02-05T06:12:11.539Z,35.4
2019-02-05T06:13:03.085Z,35.4
2019-02-05T06:13:53.024Z,35.4
2019-02-05T06:14:43.341Z,35.4
2019-02-05T06:15:35.699Z,35.4
2019-02-05T06:16:22.939Z,35.4
2019-02-05T06:17:12.704Z,35.4
2019-02-05T06:18:06.381Z,35.4
2019-02-05T06:18:53.451Z,35.4
2019-02-05T06:19:42.071Z,35.4
2019-02-05T06:20:33.039Z,35.4
2019-02-05T06:21:22.458Z,35.4
2019-02-05T06:22:13.408Z,35.4
2019-02-05T06:23:03.409Z,35.4
2019-02-05T06:23:56.428Z,35.4
2019-02-05T06:24:43.519Z,35.4
2019-02-05T06:25:33.082Z,35.4
2019-02-05T06:26:25.846Z,35.4
2019-02-05T06:27:13.449Z,35.3
2019-02-05T06:28:04.025Z,35.3
2019-02-05T06:28:53.871Z,35.4
2019-02-05T06:29:45.098Z,35.3
2019-02-05T06:30:33.908Z,35.3
2019-02-05T06:31:24.262Z,35.3
2019-02-05T06:32:13.870Z,35.3
2019-02-05T06:33:04.800Z,35.3
2019-02-05T06:33:54.151Z,35.3
2019-02-05T06:34:44.210Z,35.3
2019-02-05T06:35:34.083Z,35.3
2019-02-05T06:36:24.641Z,35.3
2019-02-05T06:37:14.427Z,35.3
2019-02-05T06:38:04.460Z,35.3
2019-02-05T06:38:56.558Z,35.3
2019-02-05T06:39:44.440Z,35.2
2019-02-05T06:40:34.976Z,35.3
2019-02-05T06:41:24.151Z,35.2
2019-02-05T06:42:15.052Z,35.2
2019-02-05T06:43:05.090Z,35.2
2019-02-05T06:43:54.249Z,35.2
2019-02-05T06:44:45.865Z,35.1
2019-02-05T06:45:34.969Z,35.2
2019-02-05T06:46:24.984Z,35.1
2019-02-05T06:47:14.525Z,35.1
2019-02-05T06:48:06.819Z,35.1
2019-02-05T06:48:54.882Z,35.1
2019-02-05T06:49:45.049Z,35.1
2019-02-05T06:50:35.303Z,35.1
2019-02-05T06:51:25.479Z,35.1
2019-02-05T06:52:15.671Z,35
2019-02-05T06:53:05.474Z,35
2019-02-05T06:53:57.476Z,35
2019-02-05T06:54:45.054Z,34.9
2019-02-05T06:55:35.184Z,34.9
2019-02-05T06:56:25.514Z,34.9
2019-02-05T06:57:15.201Z,34.9
2019-02-05T06:58:05.580Z,34.9
2019-02-05T06:58:55.019Z,34.8
2019-02-05T06:59:46.876Z,34.9
2019-02-05T07:00:35.153Z,34.8
2019-02-05T07:01:26.121Z,34.8
2019-02-05T07:02:15.283Z,34.8
2019-02-05T07:03:08.048Z,34.8
2019-02-05T07:03:56.223Z,34.8
2019-02-05T07:06:21.896Z,34.7
2019-02-05T07:07:11.416Z,34.7
2019-02-05T07:08:02.305Z,34.7
2019-02-05T07:08:53.598Z,34.7
2019-02-05T07:09:42.459Z,34.7
2019-02-05T07:10:32.533Z,34.6
2019-02-05T07:11:22.633Z,34.6
2019-02-05T07:12:12.591Z,34.6
2019-02-05T07:13:02.451Z,34.6
2019-02-05T07:13:52.715Z,34.6
2019-02-05T07:14:44.793Z,34.6
2019-02-05T07:15:33.115Z,34.6
2019-02-05T07:16:22.894Z,34.6
2019-02-05T07:17:12.363Z,34.6
2019-02-05T07:18:03.287Z,34.5
2019-02-05T07:18:52.497Z,34.5
2019-02-05T07:19:43.386Z,34.5
2019-02-05T07:20:33.755Z,34.5
2019-02-05T07:21:22.952Z,34.4
2019-02-05T07:22:13.652Z,34.4
2019-02-05T07:23:03.742Z,34.4
2019-02-05T07:23:54.648Z,34.4
2019-02-05T07:24:42.940Z,34.4
2019-02-05T07:25:33.529Z,34.4
2019-02-05T07:26:23.575Z,34.4
2019-02-05T07:27:13.657Z,34.4
2019-02-05T07:28:02.935Z,34.4
2019-02-05T07:29:06.760Z,34.4
2019-02-05T07:29:45.847Z,34.3
2019-02-05T07:30:33.554Z,34.3
2019-02-05T07:31:23.661Z,34.3
2019-02-05T07:32:14.332Z,34.3
2019-02-05T07:33:03.826Z,34.3
2019-02-05T07:33:54.102Z,34.3
2019-02-05T07:34:44.426Z,34.3
2019-02-05T07:35:35.557Z,34.3
2019-02-05T07:36:24.414Z,34.3
2019-02-05T07:37:14.435Z,34.2
2019-02-05T07:38:04.235Z,34.2
2019-02-05T07:38:53.441Z,34.2
2019-02-05T07:39:43.765Z,34.2
2019-02-05T07:40:34.486Z,34.2
2019-02-05T07:41:26.008Z,34.2
2019-02-05T07:42:14.247Z,34.2
2019-02-05T07:43:03.848Z,34.2
2019-02-05T07:43:54.691Z,34.2
2019-02-05T07:44:45.876Z,34.2
2019-02-05T07:45:34.306Z,34.1
2019-02-05T07:46:24.708Z,34.1
2019-02-05T07:47:16.612Z,34.1
2019-02-05T07:48:04.897Z,34.1
2019-02-05T07:48:55.211Z,34.1
2019-02-05T07:49:45.523Z,34.1
2019-02-05T07:50:35.366Z,34.1
2019-02-05T07:51:25.801Z,34.1
2019-02-05T07:52:15.215Z,34.1
2019-02-05T07:53:05.291Z,34.1
2019-02-05T07:53:55.030Z,34
2019-02-05T07:54:45.583Z,34
2019-02-05T07:55:35.098Z,34
2019-02-05T07:56:27.640Z,33.9
2019-02-05T07:57:15.507Z,33.9
2019-02-05T07:58:05.853Z,33.9
2019-02-05T07:58:55.868Z,33.9
2019-02-05T07:59:48.963Z,33.9
2019-02-05T08:00:36.365Z,33.8
2019-02-05T08:01:25.879Z,33.8
2019-02-05T08:02:18.490Z,33.8
2019-02-05T08:03:06.010Z,33.8
2019-02-05T08:03:55.767Z,33.8
2019-02-05T08:04:46.155Z,33.8
2019-02-05T08:05:36.665Z,33.8
2019-02-05T08:06:26.237Z,33.8
2019-02-05T08:07:15.951Z,33.8
2019-02-05T08:08:21.837Z,33.7
2019-02-05T08:08:56.574Z,33.7
2019-02-05T08:09:46.372Z,33.7
2019-02-05T08:10:36.481Z,33.7
2019-02-05T08:11:26.657Z,33.7
2019-02-05T08:12:16.631Z,33.7
2019-02-05T08:13:06.972Z,33.7
2019-02-05T08:13:57.589Z,33.6
2019-02-05T08:14:46.797Z,33.6
2019-02-05T08:15:37.102Z,33.6
2019-02-05T08:16:26.839Z,33.6
2019-02-05T08:17:17.533Z,33.6
2019-02-05T08:18:06.994Z,33.6
2019-02-05T08:18:57.011Z,33.6
2019-02-05T08:19:49.624Z,33.5
2019-02-05T08:20:37.526Z,33.6
2019-02-05T08:21:27.347Z,33.6
2019-02-05T08:22:17.324Z,33.5
2019-02-05T08:23:07.394Z,33.6
2019-02-05T08:23:57.361Z,33.5
2019-02-05T08:24:47.936Z,33.5
2019-02-05T08:25:39.789Z,33.5
2019-02-05T08:26:27.836Z,33.5
2019-02-05T08:27:16.866Z,33.4
2019-02-05T08:28:08.117Z,33.4
2019-02-05T08:28:58.248Z,33.4
2019-02-05T08:29:47.206Z,33.4
2019-02-05T08:30:37.854Z,33.4
2019-02-05T08:31:28.538Z,33.4
2019-02-05T08:32:18.523Z,33.4
2019-02-05T08:33:07.823Z,33.4
2019-02-05T08:33:57.795Z,33.4
2019-02-05T08:34:51.128Z,33.4
2019-02-05T08:35:38.175Z,33.4
2019-02-05T08:36:28.515Z,33.4
2019-02-05T08:37:18.943Z,33.3
2019-02-05T08:38:08.431Z,33.3
2019-02-05T08:38:58.960Z,33.3
2019-02-05T08:39:47.135Z,33.3
2019-02-05T08:40:41.397Z,33.3
2019-02-05T08:41:27.820Z,33.3
2019-02-05T08:42:18.425Z,33.3
2019-02-05T08:43:08.417Z,33.3
2019-02-05T08:43:59.284Z,33.3
2019-02-05T08:44:48.550Z,33.2
2019-02-05T08:45:39.036Z,33.2
2019-02-05T08:46:29.784Z,33.2
2019-02-05T08:47:18.712Z,33.1
2019-02-05T08:48:09.326Z,33.2
2019-02-05T08:48:59.394Z,33.2
2019-02-05T08:49:50.347Z,33.2
2019-02-05T08:50:39.364Z,33.1
2019-02-05T08:51:28.430Z,33.1
2019-02-05T08:52:19.881Z,33.1
2019-02-05T08:53:08.930Z,33.1
2019-02-05T08:53:59.717Z,33.1
2019-02-05T08:54:49.516Z,33.1
2019-02-05T08:55:41.697Z,33.1
2019-02-05T08:56:29.969Z,33.1
2019-02-05T08:57:19.971Z,33.1
2019-02-05T08:58:09.609Z,33.1
2019-02-05T08:59:00.066Z,32.9
2019-02-05T08:59:50.253Z,33
2019-02-05T09:00:40.626Z,33
2019-02-05T09:01:32.761Z,33
2019-02-05T09:02:19.514Z,32.9
2019-02-05T09:03:10.384Z,32.9
2019-02-05T09:03:59.924Z,32.9
2019-02-05T09:04:50.202Z,33
2019-02-05T09:05:40.400Z,32.9
2019-02-05T09:06:30.583Z,32.9
2019-02-05T09:07:22.053Z,32.9
2019-02-05T09:08:10.848Z,32.9
2019-02-05T09:09:00.772Z,32.9
2019-02-05T09:09:51.115Z,32.9
2019-02-05T09:10:40.664Z,32.9
2019-02-05T09:11:30.489Z,32.9
2019-02-05T09:12:24.113Z,32.9
2019-02-05T09:13:11.058Z,32.8
2019-02-05T09:14:15.364Z,32.8
2019-02-05T09:14:50.723Z,32.8
2019-02-05T09:15:41.021Z,32.8
2019-02-05T09:16:34.102Z,32.8
2019-02-05T09:17:20.806Z,32.8
2019-02-05T09:18:10.384Z,32.8
2019-02-05T09:19:01.847Z,32.8
2019-02-05T09:19:51.262Z,32.8
2019-02-05T09:20:40.491Z,32.8
2019-02-05T09:21:31.643Z,32.8
2019-02-05T09:22:23.055Z,32.8
2019-02-05T09:23:15.207Z,32.7
2019-02-05T09:24:01.558Z,32.8
2019-02-05T09:24:51.680Z,32.7
2019-02-05T09:25:41.984Z,32.7
2019-02-05T09:26:31.684Z,32.7
2019-02-05T09:27:22.398Z,32.6
2019-02-05T09:28:12.709Z,32.6
2019-02-05T09:29:02.472Z,32.6
2019-02-05T09:29:52.198Z,32.6
2019-02-05T09:30:42.597Z,32.6
2019-02-05T09:31:34.474Z,32.6
2019-02-05T09:32:22.093Z,32.6
2019-02-05T09:33:12.503Z,32.6
2019-02-05T09:34:02.340Z,32.6
2019-02-05T09:34:52.947Z,32.6
2019-02-05T09:35:42.378Z,32.6
2019-02-05T09:36:31.954Z,32.6
2019-02-05T09:37:24.739Z,32.5
2019-02-05T09:38:28.811Z,32.6
2019-02-05T09:39:53.216Z,32.5
2019-02-05T09:40:42.506Z,32.5
2019-02-05T09:41:32.548Z,32.5
2019-02-05T09:42:22.138Z,32.5
2019-02-05T09:43:14.546Z,32.4
2019-02-05T09:44:02.656Z,32.4
2019-02-05T09:44:53.374Z,32.4
2019-02-05T09:45:43.631Z,32.4
2019-02-05T09:46:34.673Z,32.4
2019-02-05T09:47:23.485Z,32.4
2019-02-05T09:48:13.398Z,32.4
2019-02-05T09:49:17.788Z,32.4
2019-02-05T09:49:53.350Z,32.4
2019-02-05T09:50:50.946Z,32.4
2019-02-05T09:51:34.003Z,32.4
2019-02-05T09:52:26.223Z,32.4
2019-02-05T09:53:14.214Z,32.4
2019-02-05T09:54:03.652Z,32.4
2019-02-05T09:54:53.662Z,32.3
2019-02-05T09:55:44.080Z,32.4
2019-02-05T09:56:34.122Z,32.3
2019-02-05T09:57:24.580Z,32.3
2019-02-05T09:58:15.510Z,32.3
2019-02-05T09:59:04.262Z,32.3
2019-02-05T09:59:53.527Z,32.3
2019-02-05T10:00:44.282Z,32.3
2019-02-05T10:01:33.362Z,32.3
2019-02-05T10:02:25.277Z,32.3
2019-02-05T10:03:14.947Z,32.3
2019-02-05T10:04:05.222Z,32.3
2019-02-05T10:04:54.722Z,32.3
2019-02-05T10:07:36.384Z,32.3
2019-02-05T10:08:14.202Z,32.3
2019-02-05T10:09:18.062Z,32.2
2019-02-05T10:10:09.279Z,32.2
2019-02-05T10:10:45.519Z,32.2
2019-02-05T10:12:32.311Z,32.1
2019-02-05T10:13:51.696Z,32.1
2019-02-05T10:15:39.698Z,32.1
2019-02-05T10:16:07.469Z,32.1
2019-02-05T10:18:33.466Z,32.1
2019-02-05T10:18:50.836Z,32.1
2019-02-05T10:20:43.772Z,32.1
2019-02-05T10:21:32.789Z,32.1
2019-02-05T10:22:59.915Z,32.1
2019-02-05T10:23:33.811Z,32.1
2019-02-05T10:24:10.561Z,32.1
2019-02-05T10:25:13.290Z,32
2019-02-05T10:26:25.266Z,32
2019-02-05T10:26:54.421Z,32
2019-02-05T10:27:44.003Z,32
2019-02-05T10:28:33.806Z,32
2019-02-05T10:29:25.441Z,31.9
2019-02-05T10:30:13.053Z,31.9
2019-02-05T10:31:03.403Z,32
2019-02-05T10:32:09.010Z,31.9
2019-02-05T10:32:44.104Z,42.3
2019-02-05T10:33:34.136Z,42.9
2019-02-05T10:34:36.823Z,44.6
2019-02-05T10:35:16.533Z,49.2
2019-02-05T10:36:07.365Z,51.1
2019-02-05T10:37:59.126Z,51.8
2019-02-05T10:38:34.481Z,51.1
2019-02-05T10:39:24.997Z,50.8
2019-02-05T10:40:14.690Z,50.3
2019-02-05T10:41:05.707Z,49.8
2019-02-05T10:41:54.685Z,49.3
2019-02-05T10:42:47.342Z,48.8
2019-02-05T10:43:35.137Z,48.3
2019-02-05T10:44:26.582Z,47.8
2019-02-05T10:45:47.049Z,47.4
2019-02-05T10:46:04.917Z,49.3
2019-02-05T10:46:54.860Z,49.8
2019-02-05T10:47:45.506Z,49.6
2019-02-05T10:48:35.717Z,51.5
2019-02-05T10:49:25.672Z,53.6
2019-02-05T10:50:18.562Z,54.6
2019-02-05T10:51:04.892Z,54.8
2019-02-05T10:51:54.451Z,54.6
2019-02-05T10:52:45.546Z,54.4
2019-02-05T10:53:35.612Z,54.4
2019-02-05T10:54:25.101Z,54.5
2019-02-05T10:55:15.704Z,54.8
2019-02-05T10:56:06.974Z,55.1
2019-02-05T10:56:55.621Z,55.3
2019-02-05T10:57:45.856Z,55.5
2019-02-05T10:58:35.111Z,55.7
2019-02-05T10:59:25.949Z,55.8
2019-02-05T11:00:15.846Z,55.9
2019-02-05T11:01:05.831Z,56
2019-02-05T11:01:57.031Z,56.1
2019-02-05T11:02:47.309Z,56.2
2019-02-05T11:03:36.223Z,56.3
2019-02-05T11:04:26.588Z,56.4
2019-02-05T11:05:18.068Z,56.6
2019-02-05T11:06:05.826Z,56.7
2019-02-05T11:06:56.806Z,56.8
2019-02-05T11:07:46.735Z,56.8
2019-02-05T11:08:51.743Z,56.9
2019-02-05T11:09:26.598Z,57.1
2019-02-05T11:10:16.983Z,57.2
2019-02-05T11:11:09.095Z,57.3
2019-02-05T11:11:57.218Z,57.3
2019-02-05T11:12:46.904Z,57.4
2019-02-05T11:13:37.200Z,57.5
2019-02-05T11:14:26.873Z,57.6
2019-02-05T11:15:17.302Z,57.6
2019-02-05T11:16:08.024Z,57.7
2019-02-05T11:17:46.953Z,57.8
2019-02-05T11:18:37.857Z,57.9
2019-02-05T11:19:27.410Z,57.9
2019-02-05T11:20:19.500Z,58
2019-02-05T11:21:10.152Z,58.1
2019-02-05T11:21:57.809Z,58.1
2019-02-05T11:22:47.867Z,58.1
2019-02-05T11:23:38.200Z,58.2
2019-02-05T11:24:28.052Z,58.3
2019-02-05T11:25:18.117Z,58.3
2019-02-05T11:26:10.704Z,58.3
2019-02-05T11:26:58.569Z,58.4
2019-02-05T11:27:51.072Z,58.4
2019-02-05T11:28:37.734Z,58.4
2019-02-05T11:29:28.080Z,58.5
2019-02-05T11:31:08.023Z,58.6
2019-02-05T11:31:59.879Z,58.6
2019-02-05T11:32:47.981Z,58.7
2019-02-05T11:33:38.102Z,58.8
2019-02-05T11:34:28.979Z,58.8